Airfield :
LOGIN :

Register | Disclaimer

   EN    FR    IT 

 










Legend :    VFR   Marginal VFR   IFR   Intensive IFR   Very Intensive IFR
Visi :
Ceiling :
>= 8 km
>= 3000ft
5 to 8 km
1000 to 3000 ft
1500m to 5 km
500 to 1000 ft
800 to 1500m
200 to 500 ft
< 800m
< 200 ft
Symbols :   Thunderstorms  Fog  Heavy snow  Heavy precipitations  Wind > 20 kt
SIGMETs :     Misc.  Thunderstorms  Icing  Turbulence  Mountain Waves  Volcanic Ashes






- Airport Elevation : 2220 ft


LOXZ - Zeltweg AB

CURRENT METAR :
  • 181150Z 00000KT 8000 -SN FEW010ST SCT030SC BKN050SC M03/M06 Q1019 NOSIG

EXPIRED METARs :
  • 181120Z VRB01KT 8000 -SN SCT030SC BKN050SC M04/M07 Q1019 NOSIG
  • 181050Z VRB01KT 8000 -SN SCT030SC BKN050SC M04/M07 Q1019 NOSIG
  • 181020Z VRB02KT 8000 -SN SCT030SC BKN050SC M05/M07 Q1019 NOSIG
  • 180950Z VRB01KT 8000 -SN SCT030SC BKN050SC M05/M08 Q1019 NOSIG
  • 180920Z 00000KT 6000 -SN SCT030SC BKN050SC M05/M08 Q1019 NOSIG

TAF TAF LOXZ
Valid from the 18 at 12:00 until the 18 at 21:00 UTC


181115Z 1812/1821 VRB03KT 8000 -SN FEW030 BKN050
TEMPO 1812/1817 29012KT 9999 NSW
BECMG 1819/1821 9999 NSW SCT050



MET'MAP, your aeronautical weather chart ! - Copyright ORBIFLY December 2007 - Disclaimer

ORBIFLY MET'MAP TEAM :

Programming & Development : Alexandra Zaïnal
Concept & original design : Baudouin d'Aumeries
Assistance for programming : Marc-Olivier Méhu
Technical & hardware support : Manuel Goepfert

Contact : metmap@orbifly.com




SOURCES & CREDITS :

   NOAA